createdAt,value
2023-01-05T00:02:08.295Z,329.40
2023-01-05T00:04:39.122Z,301.93
2023-01-05T00:07:08.332Z,268.30
2023-01-05T00:09:38.893Z,256.13
2023-01-05T00:12:25.643Z,194.73
2023-01-05T00:15:20.488Z,261.50
2023-01-05T00:18:07.042Z,246.33
2023-01-05T00:20:55.026Z,232.40
2023-01-05T00:23:24.149Z,205.13
2023-01-05T00:25:53.213Z,172.33
2023-01-05T00:28:22.299Z,206.77
2023-01-05T00:30:51.335Z,187.07
2023-01-05T00:33:20.423Z,177.17
2023-01-05T00:35:50.892Z,190.63
2023-01-05T00:38:38.370Z,146.17
2023-01-05T00:41:08.831Z,157.10
2023-01-05T00:43:37.978Z,180.70
2023-01-05T00:46:07.208Z,212.27
2023-01-05T00:48:36.236Z,218.13
2023-01-05T00:51:07.028Z,261.77
2023-01-05T00:53:35.968Z,217.70
2023-01-05T00:56:05.250Z,205.90
2023-01-05T00:58:34.712Z,203.90
2023-01-05T01:01:03.754Z,228.07
2023-01-05T01:03:32.848Z,196.77
2023-01-05T01:06:01.976Z,199.47
2023-01-05T01:08:32.595Z,201.17
2023-01-05T01:11:06.517Z,166.23
2023-01-05T01:13:36.048Z,149.57
2023-01-05T01:16:08.959Z,150.90
2023-01-05T01:18:56.518Z,150.37
2023-01-05T01:21:25.614Z,194.83
2023-01-05T01:23:56.320Z,181.03
2023-01-05T01:26:25.408Z,168.10
2023-01-05T01:28:54.401Z,165.97
2023-01-05T01:31:23.612Z,166.40
2023-01-05T01:33:52.823Z,204.07
2023-01-05T01:36:21.742Z,179.50
2023-01-05T01:38:50.718Z,170.57
2023-01-05T01:41:21.926Z,212.33
2023-01-05T01:43:52.454Z,182.77
2023-01-05T01:46:25.084Z,244.27
2023-01-05T01:48:59.248Z,273.63
2023-01-05T01:51:32.403Z,302.27
2023-01-05T01:54:06.276Z,259.80
2023-01-05T01:56:39.620Z,253.57
2023-01-05T01:59:09.738Z,271.27
2023-01-05T02:01:39.167Z,282.20
2023-01-05T02:04:09.189Z,295.13
2023-01-05T02:06:39.139Z,272.07
2023-01-05T02:09:09.011Z,319.60
2023-01-05T02:11:51.991Z,298.03
2023-01-05T02:14:29.041Z,238.67
2023-01-05T02:17:10.742Z,325.00
2023-01-05T02:20:24.917Z,307.83
2023-01-05T02:23:33.439Z,300.73
2023-01-05T02:26:39.800Z,267.67
2023-01-05T02:29:32.124Z,303.03
2023-01-05T02:32:10.021Z,248.03
2023-01-05T02:34:44.263Z,220.30
2023-01-05T02:37:20.683Z,250.57
2023-01-05T02:39:55.789Z,258.33
2023-01-05T02:42:29.515Z,263.83
2023-01-05T02:44:58.764Z,272.83
2023-01-05T02:47:42.778Z,249.10
2023-01-05T02:50:18.928Z,254.30
2023-01-05T02:52:58.166Z,233.40
2023-01-05T02:55:34.155Z,287.73
2023-01-05T02:58:08.378Z,264.20
2023-01-05T03:00:44.131Z,303.70
2023-01-05T03:03:20.767Z,282.07
2023-01-05T03:05:56.242Z,245.80
2023-01-05T03:08:32.764Z,229.70
2023-01-05T03:11:38.547Z,207.87
2023-01-05T03:14:14.098Z,211.43
2023-01-05T03:16:45.691Z,206.97
2023-01-05T03:19:40.227Z,204.10
2023-01-05T03:22:36.815Z,207.93
2023-01-05T03:25:26.918Z,190.87
2023-01-05T03:28:14.617Z,178.47
2023-01-05T03:31:10.889Z,164.53
2023-01-05T03:34:02.940Z,176.07
2023-01-05T03:36:39.539Z,164.40
2023-01-05T03:39:11.524Z,158.60
2023-01-05T03:41:41.576Z,182.70
2023-01-05T03:44:29.419Z,183.13
2023-01-05T03:46:59.419Z,209.07
2023-01-05T03:49:28.615Z,210.23
2023-01-05T03:52:17.604Z,210.47
2023-01-05T03:54:47.009Z,199.90
2023-01-05T03:57:16.689Z,193.07
2023-01-05T03:59:46.931Z,205.47
2023-01-05T04:02:16.176Z,223.53
2023-01-05T04:04:45.590Z,219.93
2023-01-05T04:07:17.059Z,202.87
2023-01-05T04:09:46.403Z,190.40
2023-01-05T04:12:15.597Z,210.77
2023-01-05T04:14:46.824Z,206.43
2023-01-05T04:17:15.889Z,208.13
2023-01-05T04:19:45.132Z,225.40
2023-01-05T04:22:19.840Z,233.63
2023-01-05T04:24:51.351Z,230.20
2023-01-05T04:27:20.858Z,222.47
2023-01-05T04:29:50.685Z,210.27
2023-01-05T04:32:19.741Z,226.43
2023-01-05T04:34:49.950Z,207.87
2023-01-05T04:37:23.735Z,226.73
2023-01-05T04:40:11.984Z,238.67
2023-01-05T04:42:48.829Z,236.40
2023-01-05T04:45:18.183Z,215.67
2023-01-05T04:47:47.872Z,207.03
2023-01-05T04:50:20.802Z,204.60
2023-01-05T04:52:52.724Z,224.97
2023-01-05T04:55:39.995Z,218.87
2023-01-05T04:58:12.142Z,241.90
2023-01-05T05:00:43.405Z,243.10
2023-01-05T05:03:12.669Z,232.93
2023-01-05T05:05:42.135Z,233.60
2023-01-05T05:08:13.871Z,261.30
2023-01-05T05:10:42.943Z,236.87
2023-01-05T05:13:12.055Z,227.10
2023-01-05T05:15:41.514Z,236.57
2023-01-05T05:18:10.725Z,265.13
2023-01-05T05:20:45.718Z,229.73
2023-01-05T05:23:16.339Z,235.37
2023-01-05T05:25:45.564Z,208.17
2023-01-05T05:28:15.352Z,250.47
2023-01-05T05:30:44.729Z,264.57
2023-01-05T05:33:13.844Z,275.00
2023-01-05T05:35:43.626Z,278.07
2023-01-05T05:38:12.794Z,263.57
2023-01-05T05:40:43.248Z,293.37
2023-01-05T05:43:12.290Z,279.90
2023-01-05T05:45:46.306Z,305.07
2023-01-05T05:48:18.966Z,315.83
2023-01-05T05:50:47.969Z,293.80
2023-01-05T05:53:16.909Z,308.27
2023-01-05T05:55:50.457Z,294.50
2023-01-05T05:58:19.839Z,308.73
2023-01-05T06:00:48.890Z,300.97
2023-01-05T06:03:18.159Z,295.07
2023-01-05T06:05:47.366Z,321.57
2023-01-05T06:08:16.409Z,378.23
2023-01-05T06:10:46.967Z,660.83
2023-01-05T06:13:16.094Z,376.80
2023-01-05T06:15:45.236Z,510.53
2023-01-05T06:18:14.225Z,377.30
2023-01-05T06:20:43.699Z,536.97
2023-01-05T06:23:12.853Z,586.70
2023-01-05T06:25:42.821Z,461.87
2023-01-05T06:28:18.477Z,420.93
2023-01-05T06:30:49.289Z,356.27
2023-01-05T06:33:18.332Z,409.77
2023-01-05T06:35:47.375Z,337.57
2023-01-05T06:38:16.841Z,377.67
2023-01-05T06:40:48.531Z,340.43
2023-01-05T06:43:19.131Z,327.13
2023-01-05T06:45:48.465Z,340.97
2023-01-05T06:48:17.434Z,342.30
2023-01-05T06:50:46.462Z,345.47
2023-01-05T06:53:15.487Z,366.60
2023-01-05T06:55:45.529Z,297.00
2023-01-05T06:58:14.755Z,292.73
2023-01-05T07:00:45.308Z,217.30
2023-01-05T07:03:15.711Z,225.10
2023-01-05T07:05:44.908Z,187.30
2023-01-05T07:08:13.887Z,182.13
2023-01-05T07:10:43.031Z,184.63
2023-01-05T07:13:12.231Z,190.23
2023-01-05T07:15:42.150Z,177.90
2023-01-05T07:18:18.197Z,182.67
2023-01-05T07:20:47.305Z,159.10
2023-01-05T07:23:16.463Z,154.03
2023-01-05T07:25:45.515Z,147.23
2023-01-05T07:28:14.528Z,158.13
2023-01-05T07:30:43.625Z,183.07
2023-01-05T07:33:14.105Z,197.10
2023-01-05T07:35:43.142Z,223.23
2023-01-05T07:38:12.195Z,267.97
2023-01-05T07:40:41.267Z,237.40
2023-01-05T07:43:10.449Z,228.90
2023-01-05T07:45:40.187Z,261.83
2023-01-05T07:48:09.118Z,267.67
2023-01-05T07:50:39.682Z,250.23
2023-01-05T07:53:08.750Z,285.23
2023-01-05T07:55:37.742Z,262.27
2023-01-05T07:58:06.788Z,260.37
2023-01-05T08:00:36.038Z,262.03
2023-01-05T08:03:04.969Z,238.77
2023-01-05T08:05:34.603Z,247.20
2023-01-05T08:08:05.169Z,257.17
2023-01-05T08:10:34.257Z,236.50
2023-01-05T08:13:21.764Z,221.37
2023-01-05T08:15:52.457Z,233.07
2023-01-05T08:18:22.233Z,217.17
2023-01-05T08:21:10.269Z,201.70
2023-01-05T08:23:40.954Z,205.63
2023-01-05T08:26:13.357Z,201.83
2023-01-05T08:28:42.702Z,182.93
2023-01-05T08:31:15.499Z,178.30
2023-01-05T08:33:44.845Z,188.00
2023-01-05T08:36:16.906Z,188.37
2023-01-05T08:38:49.475Z,175.33
2023-01-05T08:41:19.757Z,185.50
2023-01-05T08:43:52.774Z,170.57
2023-01-05T08:46:23.098Z,183.07
2023-01-05T08:48:52.786Z,180.30
2023-01-05T08:51:22.194Z,163.40
2023-01-05T08:53:52.867Z,183.30
2023-01-05T08:56:25.221Z,200.10
2023-01-05T08:58:55.850Z,190.30
2023-01-05T09:01:25.068Z,177.83
2023-01-05T09:03:54.121Z,191.37
2023-01-05T09:06:23.655Z,193.90
2023-01-05T09:09:02.409Z,202.10
2023-01-05T09:11:35.008Z,177.67
2023-01-05T09:14:04.507Z,149.07
2023-01-05T09:19:25.783Z,137.40
2023-01-05T09:21:54.965Z,144.73
2023-01-05T09:24:25.564Z,128.63
2023-01-05T09:26:54.757Z,111.70
2023-01-05T09:29:24.252Z,103.57
2023-01-05T09:31:53.343Z,102.47
2023-01-05T09:34:22.570Z,94.43
2023-01-05T09:37:10.764Z,113.37
2023-01-05T09:39:41.371Z,114.80
2023-01-05T09:42:32.566Z,114.83
2023-01-05T09:45:05.172Z,108.37
2023-01-05T09:47:38.357Z,140.23
2023-01-05T09:50:09.580Z,111.77
2023-01-05T09:52:38.940Z,100.37
2023-01-05T09:55:17.373Z,101.73
2023-01-05T09:57:54.869Z,104.50
2023-01-05T10:00:25.522Z,99.87
2023-01-05T10:02:59.018Z,125.33
2023-01-05T10:05:30.456Z,111.30
2023-01-05T10:08:04.399Z,107.17
2023-01-05T10:10:46.484Z,177.53
2023-01-05T10:13:22.587Z,109.23
2023-01-05T10:15:54.357Z,92.70
2023-01-05T10:18:27.283Z,91.83
2023-01-05T10:21:08.786Z,96.27
2023-01-05T10:23:56.206Z,98.83
2023-01-05T10:26:51.359Z,127.87
2023-01-05T10:29:26.939Z,132.33
2023-01-05T10:32:01.261Z,96.30
2023-01-05T10:34:47.759Z,85.77
2023-01-05T10:37:42.096Z,106.83
2023-01-05T10:40:21.078Z,111.97
2023-01-05T10:43:06.162Z,106.73
2023-01-05T10:45:46.056Z,114.20
2023-01-05T10:48:32.937Z,108.23
2023-01-05T10:51:02.786Z,104.57
2023-01-05T10:53:35.164Z,99.27
2023-01-05T10:56:06.891Z,96.00
2023-01-05T10:58:39.634Z,96.07
2023-01-05T11:01:19.838Z,103.33
2023-01-05T11:04:26.630Z,138.90
2023-01-05T11:06:40.327Z,163.43
2023-01-05T11:09:22.140Z,132.67
2023-01-05T11:11:56.781Z,116.77
2023-01-05T11:14:53.351Z,97.20
2023-01-05T11:17:28.642Z,79.60
2023-01-05T11:19:59.537Z,86.77
2023-01-05T11:22:32.252Z,75.10
2023-01-05T11:25:25.954Z,73.40
2023-01-05T11:28:11.098Z,78.87
2023-01-05T11:31:01.223Z,85.97
2023-01-05T11:33:33.887Z,80.57
2023-01-05T11:36:03.912Z,85.97
2023-01-05T11:38:34.006Z,91.47
2023-01-05T11:41:03.469Z,94.00
2023-01-05T11:43:34.204Z,141.57
2023-01-05T11:46:06.513Z,79.53
2023-01-05T11:48:37.752Z,83.03
2023-01-05T11:51:07.225Z,83.00
2023-01-05T11:53:41.541Z,82.17
2023-01-05T11:56:22.016Z,80.27
2023-01-05T11:58:52.204Z,83.33
2023-01-05T12:01:47.970Z,80.13
2023-01-05T12:04:56.674Z,80.47
2023-01-05T12:07:34.579Z,81.77
2023-01-05T12:10:20.974Z,90.37
2023-01-05T12:12:59.786Z,98.27
2023-01-05T12:15:45.279Z,85.27
2023-01-05T12:18:30.386Z,68.10
2023-01-05T12:21:05.917Z,79.27
2023-01-05T12:24:04.488Z,83.20
2023-01-05T12:26:40.612Z,95.57
2023-01-05T12:35:58.884Z,77.57
2023-01-05T12:38:39.174Z,76.27
2023-01-05T12:41:26.817Z,83.23
2023-01-05T12:44:10.640Z,89.53
2023-01-05T12:46:50.839Z,70.97
2023-01-05T12:49:25.755Z,74.73
2023-01-05T12:52:06.736Z,77.03
2023-01-05T12:54:42.971Z,98.13
2023-01-05T12:57:17.114Z,77.23
2023-01-05T12:59:53.954Z,78.47
2023-01-05T13:02:32.791Z,82.63
2023-01-05T13:05:07.907Z,87.13
2023-01-05T13:07:44.229Z,87.33
2023-01-05T13:10:21.165Z,107.63
2023-01-05T13:12:55.805Z,98.40
2023-01-05T13:15:29.750Z,74.60
2023-01-05T13:18:00.354Z,76.63
2023-01-05T13:20:37.520Z,79.70
2023-01-05T13:23:16.152Z,71.07
2023-01-05T13:25:51.784Z,68.90
2023-01-05T13:28:23.094Z,67.13
2023-01-05T13:31:22.337Z,66.70
2023-01-05T13:34:07.913Z,67.40
2023-01-05T13:37:29.240Z,77.43
2023-01-05T13:40:16.474Z,78.20
2023-01-05T13:46:04.224Z,78.57
2023-01-05T13:49:04.203Z,97.17
2023-01-05T13:51:54.593Z,87.03
2023-01-05T13:54:43.778Z,85.23
2023-01-05T13:57:23.726Z,89.10
2023-01-05T14:00:05.397Z,99.87
2023-01-05T14:02:43.522Z,118.57
2023-01-05T14:05:24.101Z,137.80
2023-01-05T14:07:54.535Z,122.93
2023-01-05T14:10:25.901Z,112.80
2023-01-05T14:12:57.040Z,97.20
2023-01-05T14:15:39.979Z,92.70
2023-01-05T14:18:10.171Z,84.17
2023-01-05T14:20:44.474Z,89.97
2023-01-05T14:23:59.128Z,86.77
2023-01-05T14:27:03.427Z,78.37
2023-01-05T14:30:11.847Z,83.23
2023-01-05T14:33:07.291Z,88.17
2023-01-05T14:35:37.705Z,90.80
2023-01-05T14:38:09.525Z,95.47
2023-01-05T14:40:41.538Z,115.50
2023-01-05T14:43:32.873Z,106.83
2023-01-05T14:46:09.862Z,139.93
2023-01-05T14:48:43.573Z,129.13
2023-01-05T14:51:33.146Z,123.43
2023-01-05T14:54:04.815Z,122.27
2023-01-05T14:56:35.651Z,126.43
2023-01-05T14:59:16.218Z,117.67
2023-01-05T15:01:51.713Z,109.00
2023-01-05T15:04:27.251Z,121.57
2023-01-05T15:07:30.381Z,124.93
2023-01-05T15:10:33.037Z,122.30
2023-01-05T15:13:44.523Z,136.87
2023-01-05T15:16:22.589Z,147.07
2023-01-05T15:19:15.919Z,163.30
2023-01-05T15:22:13.485Z,164.37
2023-01-05T15:25:32.140Z,188.53
2023-01-05T15:28:36.527Z,212.17
2023-01-05T15:31:21.609Z,198.77
2023-01-05T15:33:57.902Z,173.07
2023-01-05T15:36:31.754Z,180.53
2023-01-05T15:39:02.357Z,172.37
2023-01-05T15:41:31.703Z,158.83
2023-01-05T15:44:00.773Z,156.07
2023-01-05T15:46:34.891Z,150.50
2023-01-05T15:49:04.172Z,151.37
2023-01-05T15:51:35.169Z,150.30
2023-01-05T15:54:06.766Z,137.17
2023-01-05T15:56:39.887Z,143.60
2023-01-05T15:59:35.052Z,151.47
2023-01-05T16:02:17.524Z,136.00
2023-01-05T16:04:46.664Z,136.63
2023-01-05T16:07:15.690Z,141.00
2023-01-05T16:09:48.943Z,140.30
2023-01-05T16:12:24.543Z,143.10
2023-01-05T16:14:57.970Z,130.47
2023-01-05T16:17:31.771Z,138.83
2023-01-05T16:20:07.124Z,136.63
2023-01-05T16:23:08.340Z,146.37
2023-01-05T16:25:42.909Z,154.43
2023-01-05T16:28:17.975Z,165.77
2023-01-05T16:30:48.699Z,162.40
2023-01-05T16:33:35.331Z,147.43
2023-01-05T16:36:14.859Z,133.83
2023-01-05T16:38:44.034Z,130.33
2023-01-05T16:41:23.719Z,113.47
2023-01-05T16:43:56.297Z,144.10
2023-01-05T16:46:35.679Z,134.27
2023-01-05T16:49:43.440Z,117.17
2023-01-05T16:52:24.980Z,119.10
2023-01-05T16:55:27.554Z,186.77
2023-01-05T16:57:59.510Z,146.83
2023-01-05T17:00:37.114Z,176.67
2023-01-05T17:03:30.940Z,205.33
2023-01-05T17:06:02.377Z,183.73
2023-01-05T17:08:36.286Z,212.80
2023-01-05T17:11:09.632Z,208.90
2023-01-05T17:13:44.291Z,206.60
2023-01-05T17:16:32.458Z,221.23
2023-01-05T17:19:02.387Z,206.23
2023-01-05T17:21:33.680Z,228.10
2023-01-05T17:24:02.909Z,231.30
2023-01-05T17:26:36.632Z,207.00
2023-01-05T17:29:08.405Z,238.00
2023-01-05T17:31:37.560Z,282.47
2023-01-05T17:34:06.770Z,291.60
2023-01-05T17:36:37.458Z,293.23
2023-01-05T17:39:06.851Z,320.80
2023-01-05T17:44:07.255Z,256.53
2023-01-05T17:46:39.777Z,223.37
2023-01-05T17:49:10.224Z,260.07
2023-01-05T17:51:39.507Z,255.27
2023-01-05T17:54:08.705Z,246.23
2023-01-05T17:56:37.789Z,250.97
2023-01-05T17:59:08.795Z,258.97
2023-01-05T18:01:38.706Z,248.87
2023-01-05T18:04:07.899Z,248.07
2023-01-05T18:06:36.783Z,230.17
2023-01-05T18:09:06.557Z,207.33
2023-01-05T18:14:04.952Z,194.23
2023-01-05T18:16:35.708Z,182.27
2023-01-05T18:19:05.097Z,178.60
2023-01-05T18:21:36.035Z,188.90
2023-01-05T18:24:23.973Z,183.03
2023-01-05T18:26:55.552Z,192.87
2023-01-05T18:29:25.300Z,194.50
2023-01-05T18:31:57.887Z,186.73
2023-01-05T18:34:27.168Z,199.33
2023-01-05T18:37:02.035Z,207.30
2023-01-05T18:39:36.256Z,208.93
2023-01-05T18:42:06.071Z,207.80
2023-01-05T18:44:35.132Z,193.57
2023-01-05T18:47:06.211Z,202.00
2023-01-05T18:49:35.770Z,218.50
2023-01-05T18:52:05.857Z,180.27
2023-01-05T18:54:35.146Z,152.13
2023-01-05T18:57:04.539Z,153.20
2023-01-05T18:59:34.096Z,148.60
2023-01-05T19:02:05.087Z,140.40
2023-01-05T19:04:34.469Z,134.80
2023-01-05T19:07:03.855Z,137.20
2023-01-05T19:09:33.140Z,132.70
2023-01-05T19:12:02.657Z,131.57
2023-01-05T19:14:32.674Z,127.70
2023-01-05T19:17:01.935Z,132.13
2023-01-05T19:19:32.690Z,133.53
2023-01-05T19:22:02.499Z,137.73
2023-01-05T19:24:32.516Z,159.60
2023-01-05T19:27:02.552Z,116.23
2023-01-05T19:29:31.755Z,143.93
2023-01-05T19:32:00.749Z,143.83
2023-01-05T19:34:29.895Z,167.00
2023-01-05T19:37:00.325Z,151.97
2023-01-05T19:39:29.537Z,143.93
2023-01-05T19:41:58.765Z,162.20
2023-01-05T19:44:27.956Z,159.17
2023-01-05T19:46:56.905Z,161.37
2023-01-05T19:49:28.197Z,161.80
2023-01-05T19:51:57.783Z,152.73
2023-01-05T19:54:29.065Z,155.97
2023-01-05T19:56:58.063Z,143.20
2023-01-05T19:59:33.501Z,137.73
2023-01-05T20:02:02.934Z,140.50
2023-01-05T20:04:32.219Z,141.10
2023-01-05T20:07:04.038Z,144.03
2023-01-05T20:09:35.229Z,144.03
2023-01-05T20:12:13.672Z,144.77
2023-01-05T20:14:43.516Z,172.70
2023-01-05T20:17:14.098Z,232.17
2023-01-05T20:19:43.099Z,263.33
2023-01-05T20:22:15.062Z,252.43
2023-01-05T20:24:45.522Z,227.87
2023-01-05T20:27:17.005Z,232.60
2023-01-05T20:29:46.366Z,249.10
2023-01-05T20:32:18.258Z,268.90
2023-01-05T20:34:52.128Z,265.87
2023-01-05T20:37:23.835Z,218.43
2023-01-05T20:39:57.348Z,209.17
2023-01-05T20:42:44.786Z,207.27
2023-01-05T20:45:15.360Z,193.73
2023-01-05T20:48:03.949Z,227.30
2023-01-05T20:50:33.080Z,198.27
2023-01-05T20:53:02.511Z,209.47
2023-01-05T20:55:33.207Z,201.33
2023-01-05T20:58:02.370Z,222.47
2023-01-05T21:00:31.705Z,213.73
2023-01-05T21:03:01.241Z,178.63
2023-01-05T21:05:30.629Z,203.67
2023-01-05T21:07:59.843Z,168.37
2023-01-05T21:10:28.887Z,184.57
2023-01-05T21:13:32.096Z,180.10
2023-01-05T21:15:56.099Z,247.70
2023-01-05T21:18:25.772Z,242.17
2023-01-05T21:20:55.541Z,240.40
2023-01-05T21:23:24.992Z,247.43
2023-01-05T21:26:06.313Z,281.80
2023-01-05T21:28:38.974Z,319.07
2023-01-05T21:31:11.767Z,300.27
2023-01-05T21:33:41.832Z,348.87
2023-01-05T21:36:15.966Z,389.27
2023-01-05T21:39:00.179Z,359.07
2023-01-05T21:41:49.403Z,353.40
2023-01-05T21:44:20.764Z,367.90
2023-01-05T21:46:50.685Z,334.37
2023-01-05T21:49:20.646Z,270.63
2023-01-05T21:52:07.065Z,210.40
2023-01-05T21:54:53.449Z,186.63
2023-01-05T21:57:22.682Z,171.05
2023-01-05T21:59:54.334Z,199.93
2023-01-05T22:02:23.365Z,198.43
2023-01-05T22:04:52.210Z,184.70
2023-01-05T22:07:21.409Z,174.30
2023-01-05T22:09:50.347Z,168.87
2023-01-05T22:12:19.334Z,172.65
2023-01-05T22:15:09.898Z,205.00
2023-01-05T22:17:39.091Z,213.10
2023-01-05T22:20:09.107Z,183.13
2023-01-05T22:22:38.464Z,206.97
2023-01-05T22:25:09.668Z,212.70
2023-01-05T22:27:38.898Z,222.27
2023-01-05T22:30:10.716Z,221.43
2023-01-05T22:32:39.917Z,243.63
2023-01-05T22:35:09.559Z,257.37
2023-01-05T22:37:38.701Z,270.90
2023-01-05T22:40:09.315Z,234.33
2023-01-05T22:42:38.573Z,231.53
2023-01-05T22:45:10.583Z,240.57
2023-01-05T22:47:39.976Z,241.47
2023-01-05T22:50:09.524Z,253.63
2023-01-05T22:52:38.398Z,229.53
2023-01-05T22:55:08.079Z,233.93
2023-01-05T22:57:37.468Z,228.00
2023-01-05T23:00:09.274Z,216.60
2023-01-05T23:02:38.348Z,235.47
2023-01-05T23:05:09.601Z,190.27
2023-01-05T23:07:38.979Z,208.30
2023-01-05T23:10:09.262Z,179.07
2023-01-05T23:12:38.914Z,178.80
2023-01-05T23:15:10.462Z,186.37
2023-01-05T23:17:58.193Z,197.77
2023-01-05T23:20:27.130Z,179.87
2023-01-05T23:23:14.968Z,161.63
2023-01-05T23:25:43.962Z,194.33
2023-01-05T23:28:13.028Z,176.30
2023-01-05T23:30:43.550Z,214.77
2023-01-05T23:33:12.680Z,304.57
2023-01-05T23:35:42.006Z,219.97
2023-01-05T23:38:11.342Z,198.00
2023-01-05T23:40:43.575Z,211.70
2023-01-05T23:43:13.986Z,237.70
2023-01-05T23:45:45.127Z,289.97
2023-01-05T23:48:14.909Z,297.77
2023-01-05T23:50:44.515Z,304.70
2023-01-05T23:53:14.029Z,287.42
2023-01-05T23:55:43.798Z,273.40
2023-01-05T23:58:12.917Z,288.95
